Time;durP1;ratioP1;P1;durP2;ratioP2;P2;SDS_P1;SDS_P2;PMS_P1;PMS_P2;Temp;Humidity;BMP_temperature;BMP_pressure;BME280_temperature;BME280_humidity;BME280_pressure;Samples;Min_cycle;Max_cycle;Signal;HPM_P1;HPM_P2
2022/02/15 00:01:32;;;;;;;5.97;1.60;;;6.50;99.90;;;;;;5033415;28;20033;-96
2022/02/15 00:03:57;;;;;;;5.15;1.50;;;6.50;99.90;;;;;;5036040;28;20025;-95
2022/02/15 00:06:23;;;;;;;5.07;1.30;;;6.50;99.90;;;;;;5036266;28;20033;-95
2022/02/15 00:08:48;;;;;;;4.18;1.73;;;6.40;99.90;;;;;;5035091;28;20025;-95
2022/02/15 00:11:14;;;;;;;5.20;1.85;;;6.40;99.90;;;;;;5033225;28;20051;-94
2022/02/15 00:13:40;;;;;;;6.07;1.88;;;6.40;99.90;;;;;;5035656;28;20090;-94
2022/02/15 00:16:05;;;;;;;9.93;2.00;;;6.30;99.90;;;;;;5034985;28;20508;-95
2022/02/15 00:18:31;;;;;;;5.07;1.75;;;6.30;99.90;;;;;;5026217;28;20025;-94
2022/02/15 00:20:57;;;;;;;8.32;2.65;;;6.30;99.90;;;;;;5024749;28;20041;-94
2022/02/15 00:23:22;;;;;;;10.07;2.67;;;6.30;99.90;;;;;;5034930;28;20603;-95
2022/02/15 00:25:48;;;;;;;7.10;2.92;;;6.30;99.90;;;;;;5026107;28;20754;-94
2022/02/15 00:28:13;;;;;;;8.98;2.80;;;6.20;99.90;;;;;;5032373;28;20044;-95
2022/02/15 00:30:39;;;;;;;8.00;3.60;;;6.20;99.90;;;;;;5034138;28;20079;-95
2022/02/15 00:33:04;;;;;;;7.90;3.30;;;6.20;99.90;;;;;;5032649;28;20033;-95
2022/02/15 00:35:30;;;;;;;6.88;3.25;;;6.10;99.90;;;;;;5030933;28;20029;-96
2022/02/15 00:37:55;;;;;;;10.20;2.90;;;6.00;99.90;;;;;;5031617;28;20028;-95
2022/02/15 00:40:21;;;;;;;8.68;3.80;;;6.00;99.90;;;;;;5032830;28;20031;-96
2022/02/15 00:42:47;;;;;;;8.88;3.85;;;5.90;99.90;;;;;;5034672;28;20021;-95
2022/02/15 00:45:13;;;;;;;10.18;3.75;;;5.90;99.90;;;;;;5032252;28;20021;-96
2022/02/15 00:47:39;;;;;;;11.48;3.58;;;5.90;99.90;;;;;;5032730;28;20030;-95
2022/02/15 00:50:05;;;;;;;11.55;4.10;;;5.90;99.90;;;;;;5032050;28;20025;-95
2022/02/15 00:52:31;;;;;;;12.25;3.65;;;5.80;99.90;;;;;;5031174;28;20037;-96
2022/02/15 00:54:57;;;;;;;10.52;3.72;;;5.90;99.90;;;;;;5027827;28;20123;-95
2022/02/15 00:57:23;;;;;;;7.70;3.50;;;5.90;99.90;;;;;;5034229;28;20448;-95
2022/02/15 00:59:49;;;;;;;8.25;3.20;;;5.90;99.90;;;;;;5032799;28;20029;-95
2022/02/15 01:02:14;;;;;;;6.32;3.47;;;6.00;99.90;;;;;;5034401;28;20025;-95
2022/02/15 01:04:40;;;;;;;11.30;3.65;;;6.00;99.90;;;;;;5034666;28;20021;-96
2022/02/15 01:07:06;;;;;;;9.25;3.40;;;6.00;99.90;;;;;;5028622;28;20033;-95
2022/02/15 01:09:32;;;;;;;8.75;3.97;;;6.10;99.90;;;;;;5034303;28;20019;-95
2022/02/15 01:11:58;;;;;;;10.90;3.53;;;6.00;99.90;;;;;;5019842;28;20057;-96
2022/02/15 01:14:23;;;;;;;12.25;3.55;;;6.00;99.90;;;;;;5030267;28;20025;-95
2022/02/15 01:16:49;;;;;;;10.98;3.45;;;6.00;99.90;;;;;;5033391;28;20028;-95
2022/02/15 01:19:14;;;;;;;11.68;3.45;;;6.00;99.90;;;;;;5034010;28;20028;-95
2022/02/15 01:21:40;;;;;;;13.75;3.78;;;6.00;99.90;;;;;;5024965;28;20120;-96
2022/02/15 01:24:06;;;;;;;11.68;3.28;;;6.00;99.90;;;;;;5024546;28;20068;-96
2022/02/15 01:26:32;;;;;;;9.27;3.50;;;6.10;99.90;;;;;;5028960;28;20053;-95
2022/02/15 01:28:57;;;;;;;11.65;3.95;;;6.00;99.90;;;;;;5022773;28;20025;-95
2022/02/15 01:31:23;;;;;;;11.90;4.18;;;6.00;99.90;;;;;;5031459;28;20064;-96
2022/02/15 01:33:49;;;;;;;10.55;3.42;;;6.00;99.90;;;;;;5033960;28;20032;-96
2022/02/15 01:36:15;;;;;;;10.18;4.00;;;6.10;99.90;;;;;;5022931;28;20115;-96
2022/02/15 01:38:40;;;;;;;11.38;4.00;;;6.00;99.90;;;;;;5028745;28;20581;-94
2022/02/15 01:41:07;;;;;;;11.25;3.47;;;6.00;99.90;;;;;;5033283;28;20083;-95
2022/02/15 01:43:38;;;;;;;9.15;3.28;;;6.10;99.90;;;;;;5034237;28;20029;-95
2022/02/15 01:46:04;;;;;;;9.05;2.50;;;6.10;99.90;;;;;;5027856;28;20120;-95
2022/02/15 01:48:29;;;;;;;9.25;2.25;;;6.10;99.90;;;;;;5033096;28;20060;-95
2022/02/15 01:50:58;;;;;;;8.40;2.03;;;6.10;99.90;;;;;;5036610;28;20033;-96
2022/02/15 01:53:24;;;;;;;6.90;2.05;;;6.10;99.90;;;;;;5037654;28;20469;-96
2022/02/15 01:55:50;;;;;;;10.68;2.10;;;6.10;99.90;;;;;;5037310;28;20033;-96
2022/02/15 01:58:17;;;;;;;7.95;1.75;;;6.20;99.90;;;;;;5035609;28;20025;-95
2022/02/15 02:00:42;;;;;;;7.00;1.52;;;6.10;99.90;;;;;;5033279;28;20033;-95
2022/02/15 02:03:08;;;;;;;6.15;1.20;;;6.10;99.90;;;;;;5038524;28;20032;-95
2022/02/15 02:05:49;;;;;;;8.65;1.40;;;6.10;99.90;;;;;;5036460;28;20033;-95
2022/02/15 02:08:23;;;;;;;4.38;0.90;;;6.00;99.90;;;;;;5037152;28;20031;-96
2022/02/15 02:10:50;;;;;;;3.05;0.80;;;6.10;99.90;;;;;;5029383;28;20025;-96
2022/02/15 02:13:17;;;;;;;7.75;1.17;;;6.00;99.90;;;;;;5035059;28;20041;-96
2022/02/15 02:15:44;;;;;;;5.78;0.80;;;6.00;99.90;;;;;;5033670;28;20029;-96
2022/02/15 02:18:10;;;;;;;10.48;1.33;;;6.10;99.90;;;;;;5037011;28;20025;-95
2022/02/15 02:20:36;;;;;;;5.72;0.70;;;6.10;99.90;;;;;;5036746;28;20017;-95
2022/02/15 02:23:01;;;;;;;7.13;0.75;;;6.10;99.90;;;;;;5037714;28;20028;-95
2022/02/15 02:25:27;;;;;;;6.43;0.90;;;6.10;99.90;;;;;;5036068;28;20024;-95
2022/02/15 02:27:53;;;;;;;3.70;0.60;;;6.20;99.90;;;;;;5036989;28;20120;-96
2022/02/15 02:30:19;;;;;;;5.90;1.00;;;6.20;99.90;;;;;;5029074;28;20017;-96
2022/02/15 02:32:44;;;;;;;5.75;0.70;;;6.20;99.90;;;;;;5036651;28;20057;-95
2022/02/15 02:35:11;;;;;;;5.18;0.70;;;6.20;99.90;;;;;;5032489;28;20013;-96
2022/02/15 02:37:37;;;;;;;7.68;0.88;;;6.30;99.90;;;;;;5035195;28;20021;-96
2022/02/15 02:40:06;;;;;;;3.13;0.73;;;6.30;99.90;;;;;;5033857;28;20025;-95
2022/02/15 02:42:34;;;;;;;5.82;1.42;;;6.30;99.90;;;;;;5017725;28;20121;-95
2022/02/15 02:45:03;;;;;;;4.53;1.05;;;6.30;99.90;;;;;;5033626;28;20452;-96
2022/02/15 02:47:28;;;;;;;7.32;1.55;;;6.30;99.90;;;;;;5026214;28;20020;-96
2022/02/15 02:49:54;;;;;;;3.25;0.98;;;6.30;99.90;;;;;;5034309;28;20040;-96
2022/02/15 02:52:21;;;;;;;6.95;1.60;;;6.40;99.90;;;;;;5037346;28;20087;-95
2022/02/15 02:54:47;;;;;;;9.73;1.42;;;6.40;99.90;;;;;;5035981;28;20025;-96
2022/02/15 02:57:13;;;;;;;7.00;1.38;;;6.40;99.90;;;;;;5033807;28;20154;-96
2022/02/15 02:59:40;;;;;;;4.55;1.20;;;6.40;99.90;;;;;;5033074;28;20025;-95
2022/02/15 03:02:07;;;;;;;3.47;1.48;;;6.40;99.90;;;;;;5036206;28;20033;-96
2022/02/15 03:04:33;;;;;;;6.93;1.58;;;6.40;99.90;;;;;;5035630;28;20032;-96
2022/02/15 03:06:58;;;;;;;2.60;1.08;;;6.40;99.90;;;;;;5035735;28;20024;-96
2022/02/15 03:09:24;;;;;;;7.18;1.20;;;6.40;99.90;;;;;;5035908;28;20079;-95
2022/02/15 03:11:51;;;;;;;5.15;1.88;;;6.50;99.90;;;;;;5036166;28;20049;-96
2022/02/15 03:14:17;;;;;;;4.60;1.38;;;6.50;99.90;;;;;;5035566;28;20086;-96
2022/02/15 03:16:43;;;;;;;7.65;1.95;;;6.50;99.90;;;;;;5035439;28;20033;-96
2022/02/15 03:19:08;;;;;;;5.03;1.23;;;6.50;99.90;;;;;;5035404;28;20474;-96
2022/02/15 03:21:34;;;;;;;5.68;1.88;;;6.50;99.90;;;;;;5036384;28;20475;-95
2022/02/15 03:24:00;;;;;;;5.32;1.80;;;6.50;99.90;;;;;;5035163;28;20027;-95
2022/02/15 03:26:26;;;;;;;7.85;2.20;;;6.50;99.90;;;;;;5034938;28;20182;-95
2022/02/15 03:28:53;;;;;;;4.65;1.70;;;6.50;99.90;;;;;;5031266;28;20027;-96
2022/02/15 03:31:19;;;;;;;7.28;2.08;;;6.50;99.90;;;;;;5037494;28;20033;-96
2022/02/15 03:33:45;;;;;;;8.77;3.28;;;6.50;99.90;;;;;;5036279;28;20035;-96
2022/02/15 03:36:11;;;;;;;7.22;2.30;;;6.40;99.90;;;;;;5035652;28;20059;-96
2022/02/15 03:38:37;;;;;;;6.95;1.60;;;6.50;99.90;;;;;;5022214;28;20111;-95
2022/02/15 03:43:46;;;;;;;6.80;2.47;;;6.50;99.90;;;;;;5051106;28;20035;-95
2022/02/15 03:46:12;;;;;;;8.50;2.42;;;6.50;99.90;;;;;;5034077;28;20112;-96
2022/02/15 03:48:38;;;;;;;7.57;2.60;;;6.50;99.90;;;;;;5034553;28;20462;-96
2022/02/15 03:51:04;;;;;;;6.85;2.38;;;6.50;99.90;;;;;;5032802;28;20030;-96
2022/02/15 03:53:29;;;;;;;6.60;2.65;;;6.50;99.90;;;;;;5034826;28;20367;-96
2022/02/15 03:55:55;;;;;;;7.75;2.92;;;6.50;99.90;;;;;;5032724;28;20056;-95
2022/02/15 03:58:21;;;;;;;8.35;2.90;;;6.40;99.90;;;;;;5031262;28;20984;-95
2022/02/15 04:00:46;;;;;;;6.03;2.95;;;6.40;99.90;;;;;;5029743;28;20030;-95
2022/02/15 04:03:12;;;;;;;8.98;3.33;;;6.40;99.90;;;;;;5021016;28;20033;-96
2022/02/15 04:05:37;;;;;;;9.48;3.15;;;6.40;99.90;;;;;;5034047;28;20036;-96
2022/02/15 04:08:05;;;;;;;10.88;3.88;;;6.40;99.90;;;;;;5033180;28;20039;-96
2022/02/15 04:10:30;;;;;;;11.75;4.60;;;6.40;99.90;;;;;;5023732;28;20029;-96
2022/02/15 04:12:56;;;;;;;13.38;4.47;;;6.40;99.90;;;;;;5034950;28;20049;-95
2022/02/15 04:15:21;;;;;;;10.48;4.68;;;6.40;99.90;;;;;;5031989;28;20021;-95
2022/02/15 04:17:47;;;;;;;10.30;4.53;;;6.40;99.90;;;;;;5032954;28;20037;-95
2022/02/15 04:20:13;;;;;;;13.32;5.30;;;6.40;99.90;;;;;;5050148;28;20064;-96
2022/02/15 04:22:40;;;;;;;13.35;5.18;;;6.50;99.90;;;;;;5035447;28;20022;-95
2022/02/15 04:25:06;;;;;;;11.35;5.55;;;6.40;99.90;;;;;;5030964;28;20037;-95
2022/02/15 04:27:32;;;;;;;13.55;6.50;;;6.40;99.90;;;;;;5045378;28;20517;-95
2022/02/15 04:29:58;;;;;;;12.48;6.53;;;6.40;99.90;;;;;;5051432;28;20037;-96
2022/02/15 04:32:24;;;;;;;13.65;7.63;;;6.40;99.90;;;;;;5042228;28;20040;-96
2022/02/15 04:34:50;;;;;;;17.20;8.68;;;6.40;99.90;;;;;;5051324;28;20440;-95
2022/02/15 04:37:15;;;;;;;20.00;8.38;;;6.40;99.90;;;;;;5033729;28;20127;-95
2022/02/15 04:39:42;;;;;;;16.50;8.90;;;6.40;99.90;;;;;;5045172;28;20128;-96
2022/02/15 04:42:07;;;;;;;16.35;8.38;;;6.40;99.90;;;;;;5030150;28;20489;-95
2022/02/15 04:44:33;;;;;;;16.10;9.10;;;6.40;99.90;;;;;;5025255;28;20059;-95
2022/02/15 04:46:59;;;;;;;20.08;10.80;;;6.40;99.90;;;;;;5033040;28;20025;-95
2022/02/15 04:49:25;;;;;;;19.83;10.80;;;6.40;99.90;;;;;;5033512;28;20025;-95
2022/02/15 04:51:51;;;;;;;20.83;11.40;;;6.40;99.90;;;;;;5034789;28;20036;-96
2022/02/15 04:54:17;;;;;;;21.58;11.68;;;6.40;99.90;;;;;;5028036;28;20033;-95
2022/02/15 04:56:43;;;;;;;20.83;10.65;;;6.40;99.90;;;;;;5045040;28;20029;-96
2022/02/15 04:59:09;;;;;;;18.35;10.90;;;6.40;99.90;;;;;;5055291;28;20524;-96
2022/02/15 05:01:34;;;;;;;20.00;11.75;;;6.40;99.90;;;;;;5031238;28;20021;-96
2022/02/15 05:04:00;;;;;;;26.75;12.30;;;6.40;99.90;;;;;;5031297;28;20048;-96
2022/02/15 05:06:25;;;;;;;23.10;12.15;;;6.40;99.90;;;;;;5031727;28;20025;-95
2022/02/15 05:08:51;;;;;;;27.27;12.57;;;6.40;99.90;;;;;;5035343;28;20578;-96
2022/02/15 05:11:17;;;;;;;21.65;12.40;;;6.40;99.90;;;;;;5035624;28;20041;-96
2022/02/15 05:13:42;;;;;;;20.52;12.25;;;6.40;99.90;;;;;;5054065;28;20063;-96
2022/02/15 05:16:08;;;;;;;22.23;12.82;;;6.40;99.90;;;;;;5038001;28;20008;-96
2022/02/15 05:18:33;;;;;;;21.25;13.05;;;6.40;99.90;;;;;;5037995;28;20040;-95
2022/02/15 05:21:02;;;;;;;29.90;13.98;;;6.40;99.90;;;;;;5034685;28;20027;-95
2022/02/15 05:23:29;;;;;;;25.95;13.73;;;6.40;99.90;;;;;;5036511;28;20412;-96
2022/02/15 05:25:55;;;;;;;29.48;14.88;;;6.40;99.90;;;;;;5056840;28;20089;-96
2022/02/15 05:28:21;;;;;;;30.77;15.50;;;6.40;99.90;;;;;;5057788;28;20025;-96
2022/02/15 05:30:47;;;;;;;28.27;15.38;;;6.40;99.90;;;;;;5041633;28;20500;-96
2022/02/15 05:33:13;;;;;;;25.13;15.73;;;6.40;99.90;;;;;;5040208;28;20183;-96
2022/02/15 05:35:39;;;;;;;31.50;17.05;;;6.40;99.90;;;;;;5054002;28;20021;-96
2022/02/15 05:38:04;;;;;;;30.83;16.67;;;6.40;99.90;;;;;;5055478;28;20029;-96
2022/02/15 05:40:30;;;;;;;27.50;15.32;;;6.40;99.90;;;;;;5049796;28;20039;-95
2022/02/15 05:42:56;;;;;;;31.27;16.35;;;6.40;99.90;;;;;;5033320;28;20113;-94
2022/02/15 05:45:21;;;;;;;28.77;16.40;;;6.40;99.90;;;;;;5042421;28;20047;-94
2022/02/15 05:47:47;;;;;;;26.67;16.15;;;6.40;99.90;;;;;;5048258;28;20059;-96
2022/02/15 05:52:57;;;;;;;30.98;17.80;;;6.40;99.90;;;;;;5049930;28;20087;-96
2022/02/15 05:55:22;;;;;;;33.20;17.80;;;6.40;99.90;;;;;;5040833;28;20021;-96
2022/02/15 05:57:48;;;;;;;33.25;16.88;;;6.40;99.90;;;;;;5038475;28;20024;-95
2022/02/15 06:00:15;;;;;;;31.00;18.45;;;6.40;99.90;;;;;;5037485;28;20083;-96
2022/02/15 06:02:41;;;;;;;32.75;18.30;;;6.40;99.90;;;;;;5056773;28;20095;-95
2022/02/15 06:05:07;;;;;;;29.35;17.77;;;6.40;99.90;;;;;;5056009;28;20033;-96
2022/02/15 06:07:33;;;;;;;33.20;17.80;;;6.40;99.90;;;;;;5054934;28;20029;-96
2022/02/15 06:09:58;;;;;;;32.85;17.98;;;6.50;99.90;;;;;;5048890;28;20025;-95
2022/02/15 06:12:24;;;;;;;30.65;18.67;;;6.40;99.90;;;;;;5029354;28;20141;-96
2022/02/15 06:14:50;;;;;;;34.28;18.83;;;6.40;99.90;;;;;;5045705;28;20025;-96
2022/02/15 06:17:15;;;;;;;28.95;18.67;;;6.40;99.90;;;;;;5057149;28;20037;-95
2022/02/15 06:19:41;;;;;;;29.38;18.05;;;6.40;99.90;;;;;;5039468;28;20025;-96
2022/02/15 06:22:07;;;;;;;26.73;17.77;;;6.40;99.90;;;;;;5057102;28;20040;-96
2022/02/15 06:24:32;;;;;;;36.53;18.58;;;6.40;99.90;;;;;;5038992;28;20063;-96
2022/02/15 06:27:01;;;;;;;31.02;18.15;;;6.40;99.90;;;;;;5041298;28;20046;-96
2022/02/15 06:29:29;;;;;;;30.55;19.42;;;6.40;99.90;;;;;;5050224;28;20025;-96
2022/02/15 06:31:55;;;;;;;31.90;18.15;;;6.40;99.90;;;;;;5040542;28;20228;-95
2022/02/15 06:34:21;;;;;;;31.00;19.33;;;6.40;99.90;;;;;;5053512;28;20797;-96
2022/02/15 06:36:46;;;;;;;31.80;18.33;;;6.40;99.90;;;;;;5036555;28;20094;-96
2022/02/15 06:39:16;;;;;;;30.55;17.95;;;6.40;99.90;;;;;;5052091;28;20017;-96
2022/02/15 06:41:42;;;;;;;31.60;19.00;;;6.40;99.90;;;;;;5047048;28;20045;-95
2022/02/15 06:44:08;;;;;;;29.42;17.48;;;6.50;99.90;;;;;;5055464;28;20089;-96
2022/02/15 06:46:34;;;;;;;28.45;18.05;;;6.50;99.90;;;;;;5418794;22;20057;-94
2022/02/15 06:48:59;;;;;;;30.83;18.17;;;6.50;99.90;;;;;;5044952;28;20030;-95
2022/02/15 06:51:25;;;;;;;30.13;17.83;;;6.50;99.90;;;;;;5021980;28;20034;-94
2022/02/15 06:53:51;;;;;;;33.95;17.85;;;6.50;99.90;;;;;;5033347;28;20034;-95
2022/02/15 06:56:16;;;;;;;31.80;16.58;;;6.50;99.90;;;;;;5039459;28;20022;-96
2022/02/15 06:58:42;;;;;;;24.50;16.27;;;6.50;99.90;;;;;;5033276;28;20481;-94
2022/02/15 07:01:09;;;;;;;30.15;17.10;;;6.50;99.90;;;;;;5035410;28;20883;-95
2022/02/15 07:03:35;;;;;;;31.13;15.35;;;6.50;99.90;;;;;;5031648;28;20034;-95
2022/02/15 07:06:00;;;;;;;27.15;14.85;;;6.50;99.90;;;;;;5029815;28;20054;-95
2022/02/15 07:08:26;;;;;;;24.83;14.38;;;6.50;99.90;;;;;;5052900;28;20025;-95
2022/02/15 07:10:54;;;;;;;32.60;16.52;;;6.50;99.90;;;;;;5025867;28;20515;-95
2022/02/15 07:13:25;;;;;;;26.80;13.77;;;6.50;99.90;;;;;;5019094;28;20033;-96
2022/02/15 07:15:52;;;;;;;25.43;15.07;;;6.50;99.90;;;;;;5019267;28;20025;-96
2022/02/15 07:18:18;;;;;;;30.13;15.02;;;6.50;99.90;;;;;;5037551;28;20033;-95
2022/02/15 07:20:44;;;;;;;30.88;15.05;;;6.60;99.90;;;;;;5030690;28;20025;-96
2022/02/15 07:23:10;;;;;;;27.17;15.27;;;6.60;99.90;;;;;;5026888;28;20030;-95
2022/02/15 07:25:40;;;;;;;28.15;13.50;;;6.60;99.90;;;;;;5026533;28;20036;-95
2022/02/15 07:28:06;;;;;;;27.90;13.93;;;6.60;99.90;;;;;;5032604;28;20091;-96
2022/02/15 07:30:32;;;;;;;26.52;14.05;;;6.70;99.90;;;;;;5022590;28;20029;-95
2022/02/15 07:32:58;;;;;;;27.15;12.88;;;6.70;99.90;;;;;;5035940;28;20098;-95
2022/02/15 07:35:24;;;;;;;25.25;11.73;;;6.70;99.90;;;;;;5039852;28;20018;-95
2022/02/15 07:37:51;;;;;;;23.30;11.32;;;6.70;99.90;;;;;;5024193;28;20044;-95
2022/02/15 07:40:21;;;;;;;23.55;10.68;;;6.70;99.90;;;;;;5035410;28;20026;-96
2022/02/15 07:42:47;;;;;;;17.88;9.30;;;6.70;99.90;;;;;;5028391;28;20040;-94
2022/02/15 07:45:18;;;;;;;22.45;9.00;;;6.70;99.90;;;;;;5054979;28;20551;-96
2022/02/15 07:47:48;;;;;;;19.25;9.00;;;6.80;99.90;;;;;;5032876;28;20489;-96
2022/02/15 07:50:18;;;;;;;19.38;7.90;;;6.70;99.90;;;;;;5034907;28;20025;-96
2022/02/15 07:52:44;;;;;;;15.93;7.30;;;6.80;99.90;;;;;;5044825;28;20136;-96
2022/02/15 07:55:12;;;;;;;26.50;7.38;;;6.80;99.90;;;;;;5048246;28;20117;-96
2022/02/15 07:57:38;;;;;;;19.50;6.72;;;6.70;99.90;;;;;;5054590;28;20029;-96
2022/02/15 08:00:05;;;;;;;24.50;7.88;;;6.70;99.90;;;;;;5028887;28;20477;-95
2022/02/15 08:02:31;;;;;;;19.15;7.32;;;6.60;99.90;;;;;;5031793;28;20495;-94
2022/02/15 08:04:56;;;;;;;23.88;8.38;;;6.70;99.90;;;;;;5036761;28;20026;-95
2022/02/15 08:07:22;;;;;;;26.30;8.63;;;6.80;99.90;;;;;;5038339;28;20045;-95
2022/02/15 08:09:48;;;;;;;20.73;8.52;;;6.90;99.90;;;;;;5033330;28;20370;-94
2022/02/15 08:12:17;;;;;;;23.00;9.48;;;6.90;99.90;;;;;;5031528;28;20036;-95
2022/02/15 08:14:44;;;;;;;25.60;9.45;;;6.90;99.90;;;;;;5040567;28;20029;-96
2022/02/15 08:17:09;;;;;;;16.15;8.80;;;7.00;99.90;;;;;;5029474;28;20133;-96
2022/02/15 08:19:35;;;;;;;16.90;9.23;;;7.00;99.90;;;;;;5035907;28;20078;-96
2022/02/15 08:22:01;;;;;;;23.65;10.32;;;7.10;99.90;;;;;;5039481;28;20066;-96
2022/02/15 08:24:28;;;;;;;21.65;10.00;;;7.10;99.90;;;;;;5036355;28;20025;-96
2022/02/15 08:26:54;;;;;;;17.05;9.25;;;7.20;99.90;;;;;;5015892;28;20029;-96
2022/02/15 08:29:19;;;;;;;20.42;9.32;;;7.20;99.90;;;;;;5036392;28;20080;-96
2022/02/15 08:31:45;;;;;;;24.33;9.05;;;7.20;99.90;;;;;;5033499;28;20041;-96
2022/02/15 08:34:11;;;;;;;16.23;7.82;;;7.20;99.90;;;;;;5031382;28;20044;-94
2022/02/15 08:36:36;;;;;;;18.48;7.45;;;7.20;99.90;;;;;;5043315;28;20029;-95
2022/02/15 08:39:03;;;;;;;18.77;8.30;;;7.20;99.90;;;;;;5045498;28;20112;-96
2022/02/15 08:41:30;;;;;;;21.40;7.15;;;7.30;99.90;;;;;;5039824;28;20034;-96
2022/02/15 08:43:57;;;;;;;23.55;7.22;;;7.30;99.90;;;;;;5032061;28;20042;-96
2022/02/15 08:46:23;;;;;;;22.55;8.10;;;7.30;99.90;;;;;;5038446;28;20049;-95
2022/02/15 08:48:49;;;;;;;20.27;6.85;;;7.30;99.90;;;;;;5040195;28;20042;-95
2022/02/15 08:51:19;;;;;;;14.90;5.90;;;7.30;99.90;;;;;;5038041;28;20101;-96
2022/02/15 08:53:50;;;;;;;16.45;5.80;;;7.40;99.90;;;;;;5040661;28;20034;-96
2022/02/15 08:56:18;;;;;;;14.50;5.15;;;7.40;99.90;;;;;;5037782;28;20076;-96
2022/02/15 08:58:43;;;;;;;16.75;5.57;;;7.50;99.90;;;;;;5040934;28;20060;-96
2022/02/15 09:01:10;;;;;;;12.35;4.72;;;7.60;99.90;;;;;;5047376;28;20034;-96
2022/02/15 09:03:36;;;;;;;23.35;5.90;;;7.50;99.90;;;;;;5053390;28;20030;-96
2022/02/15 09:06:02;;;;;;;14.57;4.70;;;7.50;99.90;;;;;;5033764;28;20184;-96
2022/02/15 09:08:28;;;;;;;16.88;5.45;;;7.50;99.90;;;;;;5033435;28;20041;-95
2022/02/15 09:10:53;;;;;;;16.98;5.32;;;7.60;99.90;;;;;;5050707;28;20083;-95
2022/02/15 09:13:19;;;;;;;13.50;4.00;;;7.70;99.90;;;;;;5033717;28;20025;-96
2022/02/15 09:15:45;;;;;;;15.60;4.25;;;7.80;99.90;;;;;;5036142;28;20527;-95
2022/02/15 09:18:10;;;;;;;15.65;4.65;;;7.80;99.90;;;;;;5026184;28;20465;-95
2022/02/15 09:20:36;;;;;;;22.02;5.30;;;7.80;99.90;;;;;;5045506;28;20036;-96
2022/02/15 09:23:04;;;;;;;17.05;4.88;;;7.80;99.90;;;;;;5043886;28;20108;-96
2022/02/15 09:25:31;;;;;;;12.82;3.55;;;7.90;99.90;;;;;;5042754;28;20085;-96
2022/02/15 09:27:58;;;;;;;13.77;3.47;;;7.90;99.90;;;;;;5031974;28;20481;-95
2022/02/15 09:30:24;;;;;;;12.75;3.40;;;8.00;99.90;;;;;;5031014;28;21640;-96
2022/02/15 09:32:50;;;;;;;16.38;3.42;;;8.00;99.90;;;;;;5035044;28;20041;-96
2022/02/15 09:35:16;;;;;;;6.53;2.78;;;8.20;99.90;;;;;;5040148;28;20481;-95
2022/02/15 09:37:42;;;;;;;10.77;2.45;;;8.20;99.90;;;;;;5028438;28;20018;-96
2022/02/15 09:40:09;;;;;;;12.02;1.95;;;8.20;99.90;;;;;;5030640;28;20030;-94
2022/02/15 09:42:36;;;;;;;10.77;2.22;;;8.20;99.90;;;;;;5037181;28;20029;-96
2022/02/15 09:45:06;;;;;;;8.65;1.73;;;8.20;99.90;;;;;;5028216;28;20024;-95
2022/02/15 09:47:37;;;;;;;8.32;1.23;;;8.00;99.90;;;;;;5022263;28;20038;-96
2022/02/15 09:50:07;;;;;;;14.38;1.35;;;8.00;99.90;;;;;;5029892;28;20064;-96
2022/02/15 09:52:33;;;;;;;7.88;1.40;;;7.90;99.90;;;;;;5039304;28;20072;-96
2022/02/15 09:55:00;;;;;;;4.40;0.95;;;7.90;99.90;;;;;;5039706;28;20025;-96
2022/02/15 09:57:26;;;;;;;9.38;0.93;;;8.00;99.90;;;;;;5038249;28;20504;-96
2022/02/15 09:59:53;;;;;;;10.55;1.17;;;8.00;99.90;;;;;;5030909;28;20049;-96
2022/02/15 10:02:24;;;;;;;11.20;2.08;;;8.00;99.90;;;;;;5034281;28;20021;-96
2022/02/15 10:04:58;;;;;;;5.40;0.95;;;8.10;99.90;;;;;;5039726;28;20009;-96
2022/02/15 10:07:26;;;;;;;6.95;0.85;;;8.20;99.90;;;;;;5037546;28;20018;-96
2022/02/15 10:09:53;;;;;;;5.40;0.80;;;8.20;99.90;;;;;;5039167;28;20029;-96
2022/02/15 10:12:20;;;;;;;8.57;0.95;;;8.20;99.90;;;;;;5038487;28;20433;-96
2022/02/15 10:14:51;;;;;;;8.18;0.88;;;8.20;99.90;;;;;;5042432;28;20075;-95
2022/02/15 10:17:17;;;;;;;10.27;1.35;;;8.20;99.90;;;;;;5046670;28;20053;-96
2022/02/15 10:19:47;;;;;;;8.57;0.80;;;8.20;99.90;;;;;;5030239;28;20057;-96
2022/02/15 10:22:16;;;;;;;9.70;0.90;;;8.20;99.90;;;;;;5044042;28;20070;-95
2022/02/15 10:24:41;;;;;;;4.75;1.05;;;8.20;99.90;;;;;;5029315;28;20022;-95
2022/02/15 10:27:11;;;;;;;8.30;1.00;;;8.40;99.90;;;;;;5031840;28;20032;-96
2022/02/15 10:29:39;;;;;;;7.50;0.75;;;8.50;99.90;;;;;;5030414;28;20025;-96
2022/02/15 10:32:08;;;;;;;8.38;0.90;;;8.50;99.90;;;;;;5036550;28;20048;-96
2022/02/15 10:34:43;;;;;;;7.18;0.95;;;8.50;99.90;;;;;;5030976;28;20117;-96
2022/02/15 10:37:10;;;;;;;10.35;1.58;;;8.60;99.90;;;;;;5020984;28;20030;-95
2022/02/15 10:39:46;;;;;;;10.27;1.30;;;8.70;99.90;;;;;;5039876;28;20473;-96
2022/02/15 10:42:15;;;;;;;6.18;1.15;;;8.90;99.90;;;;;;5041693;28;20034;-96
2022/02/15 10:44:59;;;;;;;8.07;1.30;;;9.00;99.90;;;;;;5016419;28;20113;-95
2022/02/15 10:47:35;;;;;;;11.57;1.00;;;9.00;99.90;;;;;;5038307;28;20509;-96
2022/02/15 10:50:05;;;;;;;10.05;1.00;;;9.00;99.90;;;;;;5040120;28;20389;-95
2022/02/15 10:52:31;;;;;;;7.78;0.93;;;9.10;99.90;;;;;;5041423;28;20041;-95
2022/02/15 10:54:58;;;;;;;6.18;0.75;;;9.10;99.90;;;;;;5022083;28;20048;-95
2022/02/15 10:57:24;;;;;;;4.78;0.60;;;9.10;99.90;;;;;;5023802;28;20084;-94
2022/02/15 10:59:52;;;;;;;5.20;0.70;;;9.30;99.90;;;;;;5035268;28;20113;-94
2022/02/15 11:02:30;;;;;;;8.20;0.85;;;9.30;99.90;;;;;;5038950;28;20026;-94
2022/02/15 11:05:00;;;;;;;8.20;1.05;;;9.50;99.90;;;;;;5041477;28;20026;-94
2022/02/15 11:07:33;;;;;;;6.68;0.70;;;9.50;99.90;;;;;;5035174;28;20078;-95
2022/02/15 11:10:19;;;;;;;7.32;0.70;;;9.50;99.90;;;;;;5032852;28;20020;-95
2022/02/15 11:12:51;;;;;;;7.60;0.85;;;9.40;99.90;;;;;;5036446;28;20044;-94
2022/02/15 11:15:30;;;;;;;5.75;0.60;;;9.40;99.90;;;;;;5039686;28;20482;-94
2022/02/15 11:18:01;;;;;;;6.68;0.73;;;9.50;99.90;;;;;;5034311;28;20036;-95
2022/02/15 11:20:50;;;;;;;10.52;0.90;;;9.60;99.90;;;;;;5029199;28;20026;-94
2022/02/15 11:23:20;;;;;;;5.10;0.70;;;9.60;99.90;;;;;;5043483;28;20030;-95
2022/02/15 11:25:49;;;;;;;3.42;0.50;;;9.50;99.90;;;;;;5033339;28;20030;-96
2022/02/15 11:28:19;;;;;;;7.68;0.60;;;9.40;99.90;;;;;;5017645;28;20061;-95
2022/02/15 11:30:51;;;;;;;4.57;0.70;;;9.30;99.90;;;;;;5033731;28;20030;-94
2022/02/15 11:33:24;;;;;;;5.78;0.80;;;9.20;99.90;;;;;;5036723;28;20087;-94
2022/02/15 11:35:55;;;;;;;5.13;0.60;;;9.20;99.90;;;;;;5036927;28;20033;-95
2022/02/15 11:38:22;;;;;;;4.63;0.60;;;9.30;99.90;;;;;;5022576;28;20030;-95
2022/02/15 11:41:12;;;;;;;6.40;0.73;;;9.30;99.90;;;;;;5033059;28;20026;-96
2022/02/15 11:43:39;;;;;;;4.13;0.55;;;9.30;99.90;;;;;;5030578;28;20068;-94
2022/02/15 11:46:05;;;;;;;5.07;0.70;;;9.30;99.30;;;;;;5018443;28;20022;-95
2022/02/15 11:48:39;;;;;;;6.45;1.00;;;9.20;99.20;;;;;;5036704;28;20026;-95
2022/02/15 11:51:16;;;;;;;6.93;0.70;;;9.10;99.60;;;;;;5034468;28;20120;-94
2022/02/15 11:53:44;;;;;;;5.22;1.02;;;9.00;99.90;;;;;;5035231;28;20034;-94
2022/02/15 11:56:14;;;;;;;6.60;1.00;;;8.90;99.90;;;;;;5023270;28;20029;-95
2022/02/15 11:58:47;;;;;;;8.32;1.75;;;8.90;99.90;;;;;;5032742;28;20109;-94
2022/02/15 12:01:27;;;;;;;5.22;0.90;;;8.90;99.90;;;;;;5034085;28;20036;-94
2022/02/15 12:03:54;;;;;;;8.75;1.30;;;9.10;99.90;;;;;;5035590;28;20474;-92
2022/02/15 12:06:21;;;;;;;5.53;1.17;;;9.10;99.90;;;;;;5033725;28;20021;-94
2022/02/15 12:08:54;;;;;;;5.13;1.27;;;9.20;99.90;;;;;;5031292;28;20022;-93
2022/02/15 12:11:28;;;;;;;;;;;9.30;99.90;;;;;;5024584;28;20125;-94
2022/02/15 12:13:54;;;;;;;7.07;0.60;;;9.30;99.90;;;;;;5021288;28;19961;-94
2022/02/15 12:16:20;;;;;;;3.97;0.88;;;9.40;99.90;;;;;;5035379;28;20029;-94
2022/02/15 12:18:46;;;;;;;5.07;0.70;;;9.40;99.90;;;;;;5029345;28;20068;-93
2022/02/15 12:21:11;;;;;;;3.63;0.70;;;9.50;99.70;;;;;;5036774;28;20037;-94
2022/02/15 12:23:40;;;;;;;2.67;0.40;;;9.50;98.40;;;;;;5034584;28;20093;-93
2022/02/15 12:26:07;;;;;;;4.20;1.13;;;9.40;97.40;;;;;;5033008;28;20021;-94
2022/02/15 12:28:32;;;;;;;4.82;0.80;;;9.40;97.10;;;;;;5024503;28;20026;-95
2022/02/15 12:30:58;;;;;;;3.55;0.50;;;9.40;95.80;;;;;;5025122;28;20026;-94
2022/02/15 12:33:36;;;;;;;2.45;0.40;;;9.40;95.80;;;;;;5049594;28;20037;-94
2022/02/15 12:36:04;;;;;;;5.90;0.50;;;9.50;96.80;;;;;;5033255;28;20496;-94
2022/02/15 12:38:40;;;;;;;5.38;0.50;;;9.60;96.90;;;;;;5033563;28;20134;-94
2022/02/15 12:41:15;;;;;;;6.50;1.38;;;9.70;97.00;;;;;;5029677;28;20026;-95
2022/02/15 12:43:40;;;;;;;4.65;0.40;;;9.70;96.80;;;;;;5015171;28;20108;-95
2022/02/15 12:46:06;;;;;;;3.20;0.40;;;9.90;96.70;;;;;;5048025;28;20116;-94
2022/02/15 12:48:31;;;;;;;5.43;0.40;;;10.00;96.90;;;;;;5034177;28;20041;-95
2022/02/15 12:50:57;;;;;;;2.05;0.30;;;10.00;96.90;;;;;;5047323;28;20037;-95
2022/02/15 12:53:25;;;;;;;4.28;0.50;;;10.00;96.10;;;;;;5046408;28;20117;-95
2022/02/15 12:55:52;;;;;;;5.28;0.85;;;10.00;95.50;;;;;;5026119;28;20030;-94